sensor_id;sensor_type;location;lat;lon;timestamp;P1;durP1;ratioP1;P2;durP2;ratioP2
11039;SDS011;5573;49.592;8.662;2022-08-20T00:02:14;381.50;;;359.95;;
11039;SDS011;5573;49.592;8.662;2022-08-20T00:05:03;408.63;;;385.05;;
11039;SDS011;5573;49.592;8.662;2022-08-20T00:07:51;420.63;;;396.52;;
11039;SDS011;5573;49.592;8.662;2022-08-20T00:10:41;414.08;;;390.23;;
11039;SDS011;5573;49.592;8.662;2022-08-20T00:13:35;425.20;;;400.35;;
11039;SDS011;5573;49.592;8.662;2022-08-20T00:16:25;423.13;;;398.38;;
11039;SDS011;5573;49.592;8.662;2022-08-20T00:19:19;435.95;;;410.63;;
11039;SDS011;5573;49.592;8.662;2022-08-20T00:22:12;415.13;;;390.63;;
11039;SDS011;5573;49.592;8.662;2022-08-20T00:25:00;446.02;;;419.83;;
11039;SDS011;5573;49.592;8.662;2022-08-20T00:27:49;449.08;;;423.05;;
11039;SDS011;5573;49.592;8.662;2022-08-20T00:30:37;454.42;;;427.83;;
11039;SDS011;5573;49.592;8.662;2022-08-20T00:33:26;448.20;;;421.77;;
11039;SDS011;5573;49.592;8.662;2022-08-20T00:36:16;446.70;;;420.63;;
11039;SDS011;5573;49.592;8.662;2022-08-20T00:39:04;462.73;;;435.20;;
11039;SDS011;5573;49.592;8.662;2022-08-20T00:41:52;469.77;;;442.13;;
11039;SDS011;5573;49.592;8.662;2022-08-20T00:44:43;433.85;;;408.98;;
11039;SDS011;5573;49.592;8.662;2022-08-20T00:47:32;436.13;;;411.00;;
11039;SDS011;5573;49.592;8.662;2022-08-20T00:50:22;442.20;;;416.13;;
11039;SDS011;5573;49.592;8.662;2022-08-20T00:53:14;448.88;;;422.65;;
11039;SDS011;5573;49.592;8.662;2022-08-20T00:56:04;456.45;;;430.00;;
11039;SDS011;5573;49.592;8.662;2022-08-20T00:58:54;464.45;;;437.23;;
11039;SDS011;5573;49.592;8.662;2022-08-20T01:01:43;464.17;;;436.48;;
11039;SDS011;5573;49.592;8.662;2022-08-20T01:04:42;453.15;;;426.13;;
11039;SDS011;5573;49.592;8.662;2022-08-20T01:07:33;440.02;;;413.63;;
11039;SDS011;5573;49.592;8.662;2022-08-20T01:10:24;462.42;;;434.35;;
11039;SDS011;5573;49.592;8.662;2022-08-20T01:13:18;468.83;;;440.15;;
11039;SDS011;5573;49.592;8.662;2022-08-20T01:16:10;466.10;;;437.83;;
11039;SDS011;5573;49.592;8.662;2022-08-20T01:19:05;466.10;;;437.38;;
11039;SDS011;5573;49.592;8.662;2022-08-20T01:22:16;461.25;;;432.65;;
11039;SDS011;5573;49.592;8.662;2022-08-20T01:28:29;457.33;;;429.38;;
11039;SDS011;5573;49.592;8.662;2022-08-20T01:31:21;453.65;;;425.73;;
11039;SDS011;5573;49.592;8.662;2022-08-20T01:34:11;460.80;;;432.52;;
11039;SDS011;5573;49.592;8.662;2022-08-20T01:37:01;435.75;;;408.95;;
11039;SDS011;5573;49.592;8.662;2022-08-20T01:39:49;445.10;;;417.55;;
11039;SDS011;5573;49.592;8.662;2022-08-20T01:42:39;455.50;;;428.08;;
11039;SDS011;5573;49.592;8.662;2022-08-20T01:45:45;434.83;;;409.00;;
11039;SDS011;5573;49.592;8.662;2022-08-20T01:48:35;433.02;;;406.77;;
11039;SDS011;5573;49.592;8.662;2022-08-20T01:51:25;470.38;;;442.35;;
11039;SDS011;5573;49.592;8.662;2022-08-20T01:54:16;449.17;;;422.10;;
11039;SDS011;5573;49.592;8.662;2022-08-20T01:57:05;431.17;;;405.15;;
11039;SDS011;5573;49.592;8.662;2022-08-20T01:59:59;459.98;;;432.20;;
11039;SDS011;5573;49.592;8.662;2022-08-20T02:02:51;436.20;;;409.98;;
11039;SDS011;5573;49.592;8.662;2022-08-20T02:05:39;431.67;;;406.13;;
11039;SDS011;5573;49.592;8.662;2022-08-20T02:08:27;439.48;;;413.08;;
11039;SDS011;5573;49.592;8.662;2022-08-20T02:11:18;434.67;;;408.83;;
11039;SDS011;5573;49.592;8.662;2022-08-20T02:14:07;433.38;;;407.88;;
11039;SDS011;5573;49.592;8.662;2022-08-20T02:16:59;426.85;;;401.73;;
11039;SDS011;5573;49.592;8.662;2022-08-20T02:19:48;421.25;;;396.80;;
11039;SDS011;5573;49.592;8.662;2022-08-20T02:22:40;406.75;;;383.35;;
11039;SDS011;5573;49.592;8.662;2022-08-20T02:25:36;398.80;;;375.90;;
11039;SDS011;5573;49.592;8.662;2022-08-20T02:28:26;408.33;;;384.70;;
11039;SDS011;5573;49.592;8.662;2022-08-20T02:31:15;394.52;;;372.13;;
11039;SDS011;5573;49.592;8.662;2022-08-20T02:34:06;390.30;;;368.10;;
11039;SDS011;5573;49.592;8.662;2022-08-20T02:37:08;381.70;;;360.25;;
11039;SDS011;5573;49.592;8.662;2022-08-20T02:40:00;389.50;;;367.48;;
11039;SDS011;5573;49.592;8.662;2022-08-20T02:42:48;385.05;;;362.98;;
11039;SDS011;5573;49.592;8.662;2022-08-20T02:45:36;372.85;;;351.63;;
11039;SDS011;5573;49.592;8.662;2022-08-20T02:48:29;389.42;;;366.75;;
11039;SDS011;5573;49.592;8.662;2022-08-20T02:51:20;369.88;;;348.88;;
11039;SDS011;5573;49.592;8.662;2022-08-20T02:54:16;372.13;;;350.73;;
11039;SDS011;5573;49.592;8.662;2022-08-20T02:57:04;363.23;;;342.30;;
11039;SDS011;5573;49.592;8.662;2022-08-20T02:59:58;379.42;;;357.60;;
11039;SDS011;5573;49.592;8.662;2022-08-20T03:02:47;360.10;;;339.77;;
11039;SDS011;5573;49.592;8.662;2022-08-20T03:05:36;364.80;;;344.15;;
11039;SDS011;5573;49.592;8.662;2022-08-20T03:08:27;355.73;;;335.40;;
11039;SDS011;5573;49.592;8.662;2022-08-20T03:11:16;345.38;;;325.90;;
11039;SDS011;5573;49.592;8.662;2022-08-20T03:14:04;328.95;;;310.27;;
11039;SDS011;5573;49.592;8.662;2022-08-20T03:16:52;370.55;;;349.13;;
11039;SDS011;5573;49.592;8.662;2022-08-20T03:19:41;335.05;;;315.70;;
11039;SDS011;5573;49.592;8.662;2022-08-20T03:22:29;337.40;;;318.45;;
11039;SDS011;5573;49.592;8.662;2022-08-20T03:25:18;338.88;;;319.83;;
11039;SDS011;5573;49.592;8.662;2022-08-20T03:28:07;314.25;;;297.13;;
11039;SDS011;5573;49.592;8.662;2022-08-20T03:30:55;337.25;;;318.13;;
11039;SDS011;5573;49.592;8.662;2022-08-20T03:33:45;328.30;;;310.05;;
11039;SDS011;5573;49.592;8.662;2022-08-20T03:36:39;317.40;;;299.48;;
11039;SDS011;5573;49.592;8.662;2022-08-20T03:39:27;316.98;;;299.52;;
11039;SDS011;5573;49.592;8.662;2022-08-20T03:42:16;314.30;;;297.20;;
11039;SDS011;5573;49.592;8.662;2022-08-20T03:45:05;311.00;;;294.30;;
11039;SDS011;5573;49.592;8.662;2022-08-20T03:47:54;310.70;;;294.10;;
11039;SDS011;5573;49.592;8.662;2022-08-20T03:50:44;292.77;;;276.98;;
11039;SDS011;5573;49.592;8.662;2022-08-20T03:53:33;282.23;;;267.20;;
11039;SDS011;5573;49.592;8.662;2022-08-20T03:56:21;288.63;;;273.05;;
11039;SDS011;5573;49.592;8.662;2022-08-20T03:59:11;277.67;;;262.75;;
11039;SDS011;5573;49.592;8.662;2022-08-20T04:01:59;293.30;;;277.42;;
11039;SDS011;5573;49.592;8.662;2022-08-20T04:04:47;281.77;;;266.38;;
11039;SDS011;5573;49.592;8.662;2022-08-20T04:07:35;292.42;;;276.52;;
11039;SDS011;5573;49.592;8.662;2022-08-20T04:10:24;281.38;;;266.08;;
11039;SDS011;5573;49.592;8.662;2022-08-20T04:13:15;278.63;;;263.23;;
11039;SDS011;5573;49.592;8.662;2022-08-20T04:16:09;266.27;;;251.80;;
11039;SDS011;5573;49.592;8.662;2022-08-20T04:19:01;269.42;;;255.02;;
11039;SDS011;5573;49.592;8.662;2022-08-20T04:21:50;270.10;;;255.48;;
11039;SDS011;5573;49.592;8.662;2022-08-20T04:24:38;288.00;;;272.52;;
11039;SDS011;5573;49.592;8.662;2022-08-20T04:27:27;266.00;;;251.90;;
11039;SDS011;5573;49.592;8.662;2022-08-20T04:30:15;292.58;;;276.70;;
11039;SDS011;5573;49.592;8.662;2022-08-20T04:33:06;300.02;;;283.60;;
11039;SDS011;5573;49.592;8.662;2022-08-20T04:35:55;266.08;;;251.82;;
11039;SDS011;5573;49.592;8.662;2022-08-20T04:38:46;287.60;;;271.85;;
11039;SDS011;5573;49.592;8.662;2022-08-20T04:41:36;276.30;;;261.38;;
11039;SDS011;5573;49.592;8.662;2022-08-20T04:44:24;280.92;;;265.42;;
11039;SDS011;5573;49.592;8.662;2022-08-20T04:47:17;274.80;;;259.90;;
11039;SDS011;5573;49.592;8.662;2022-08-20T04:50:21;261.75;;;247.27;;
11039;SDS011;5573;49.592;8.662;2022-08-20T04:53:12;261.80;;;247.63;;
11039;SDS011;5573;49.592;8.662;2022-08-20T04:56:08;294.15;;;277.92;;
11039;SDS011;5573;49.592;8.662;2022-08-20T04:58:58;286.25;;;270.35;;
11039;SDS011;5573;49.592;8.662;2022-08-20T05:01:47;293.70;;;277.73;;
11039;SDS011;5573;49.592;8.662;2022-08-20T05:04:35;299.02;;;282.77;;
11039;SDS011;5573;49.592;8.662;2022-08-20T05:07:25;284.83;;;269.02;;
11039;SDS011;5573;49.592;8.662;2022-08-20T05:10:14;299.40;;;282.70;;
11039;SDS011;5573;49.592;8.662;2022-08-20T05:13:04;286.05;;;269.98;;
11039;SDS011;5573;49.592;8.662;2022-08-20T05:15:52;305.58;;;288.00;;
11039;SDS011;5573;49.592;8.662;2022-08-20T05:18:41;295.95;;;279.02;;
11039;SDS011;5573;49.592;8.662;2022-08-20T05:21:37;300.15;;;283.05;;
11039;SDS011;5573;49.592;8.662;2022-08-20T05:24:27;290.55;;;273.85;;
11039;SDS011;5573;49.592;8.662;2022-08-20T05:27:17;272.23;;;256.42;;
11039;SDS011;5573;49.592;8.662;2022-08-20T05:30:10;296.83;;;279.73;;
11039;SDS011;5573;49.592;8.662;2022-08-20T05:32:59;277.17;;;261.38;;
11039;SDS011;5573;49.592;8.662;2022-08-20T05:35:49;279.05;;;263.30;;
11039;SDS011;5573;49.592;8.662;2022-08-20T05:38:38;272.63;;;257.30;;
11039;SDS011;5573;49.592;8.662;2022-08-20T05:41:27;268.63;;;253.23;;
11039;SDS011;5573;49.592;8.662;2022-08-20T05:44:16;258.92;;;244.25;;
11039;SDS011;5573;49.592;8.662;2022-08-20T05:47:05;254.85;;;240.27;;
11039;SDS011;5573;49.592;8.662;2022-08-20T05:49:54;244.10;;;230.10;;
11039;SDS011;5573;49.592;8.662;2022-08-20T05:52:42;252.57;;;237.88;;
11039;SDS011;5573;49.592;8.662;2022-08-20T05:55:31;269.52;;;254.00;;
11039;SDS011;5573;49.592;8.662;2022-08-20T05:58:21;262.13;;;246.70;;
11039;SDS011;5573;49.592;8.662;2022-08-20T06:01:11;258.90;;;243.98;;
11039;SDS011;5573;49.592;8.662;2022-08-20T06:03:59;257.30;;;241.80;;
11039;SDS011;5573;49.592;8.662;2022-08-20T06:07:05;282.05;;;265.13;;
11039;SDS011;5573;49.592;8.662;2022-08-20T06:09:53;292.02;;;274.38;;
11039;SDS011;5573;49.592;8.662;2022-08-20T06:12:42;322.63;;;303.63;;
11039;SDS011;5573;49.592;8.662;2022-08-20T06:15:32;333.77;;;314.15;;
11039;SDS011;5573;49.592;8.662;2022-08-20T06:18:21;361.35;;;340.02;;
11039;SDS011;5573;49.592;8.662;2022-08-20T06:21:14;378.50;;;355.75;;
11039;SDS011;5573;49.592;8.662;2022-08-20T06:24:02;378.30;;;355.77;;
11039;SDS011;5573;49.592;8.662;2022-08-20T06:26:54;403.13;;;378.75;;
11039;SDS011;5573;49.592;8.662;2022-08-20T06:29:42;396.10;;;371.90;;
11039;SDS011;5573;49.592;8.662;2022-08-20T06:32:32;402.48;;;377.63;;
11039;SDS011;5573;49.592;8.662;2022-08-20T06:35:20;400.23;;;376.17;;
11039;SDS011;5573;49.592;8.662;2022-08-20T06:38:09;394.90;;;370.70;;
11039;SDS011;5573;49.592;8.662;2022-08-20T06:40:58;373.92;;;351.55;;
11039;SDS011;5573;49.592;8.662;2022-08-20T06:43:46;385.20;;;362.23;;
11039;SDS011;5573;49.592;8.662;2022-08-20T06:46:34;399.65;;;375.65;;
11039;SDS011;5573;49.592;8.662;2022-08-20T06:49:23;414.30;;;388.92;;
11039;SDS011;5573;49.592;8.662;2022-08-20T06:52:13;409.63;;;384.20;;
11039;SDS011;5573;49.592;8.662;2022-08-20T06:55:03;408.17;;;383.38;;
11039;SDS011;5573;49.592;8.662;2022-08-20T06:57:56;424.08;;;397.35;;
11039;SDS011;5573;49.592;8.662;2022-08-20T07:00:46;430.38;;;404.30;;
11039;SDS011;5573;49.592;8.662;2022-08-20T07:03:34;407.77;;;382.90;;
11039;SDS011;5573;49.592;8.662;2022-08-20T07:06:25;418.15;;;392.58;;
11039;SDS011;5573;49.592;8.662;2022-08-20T07:09:14;398.90;;;374.05;;
11039;SDS011;5573;49.592;8.662;2022-08-20T07:12:02;432.48;;;405.20;;
11039;SDS011;5573;49.592;8.662;2022-08-20T07:14:52;415.05;;;389.42;;
11039;SDS011;5573;49.592;8.662;2022-08-20T07:17:40;414.10;;;388.08;;
11039;SDS011;5573;49.592;8.662;2022-08-20T07:20:29;418.55;;;391.85;;
11039;SDS011;5573;49.592;8.662;2022-08-20T07:23:20;419.38;;;393.27;;
11039;SDS011;5573;49.592;8.662;2022-08-20T07:26:08;418.77;;;392.80;;
11039;SDS011;5573;49.592;8.662;2022-08-20T07:28:57;402.90;;;377.60;;
11039;SDS011;5573;49.592;8.662;2022-08-20T07:31:45;400.20;;;374.67;;
11039;SDS011;5573;49.592;8.662;2022-08-20T07:34:51;397.77;;;372.15;;
11039;SDS011;5573;49.592;8.662;2022-08-20T07:37:39;397.02;;;372.02;;
11039;SDS011;5573;49.592;8.662;2022-08-20T07:40:32;380.55;;;356.90;;
11039;SDS011;5573;49.592;8.662;2022-08-20T07:43:21;364.70;;;341.63;;
11039;SDS011;5573;49.592;8.662;2022-08-20T07:46:10;373.67;;;349.30;;
11039;SDS011;5573;49.592;8.662;2022-08-20T07:48:59;374.55;;;350.42;;
11039;SDS011;5573;49.592;8.662;2022-08-20T07:51:47;370.58;;;346.98;;
11039;SDS011;5573;49.592;8.662;2022-08-20T07:54:35;363.52;;;340.20;;
11039;SDS011;5573;49.592;8.662;2022-08-20T07:57:25;379.35;;;354.92;;
11039;SDS011;5573;49.592;8.662;2022-08-20T08:00:13;383.25;;;358.73;;
11039;SDS011;5573;49.592;8.662;2022-08-20T08:03:03;362.75;;;340.13;;
11039;SDS011;5573;49.592;8.662;2022-08-20T08:05:51;362.17;;;339.58;;
11039;SDS011;5573;49.592;8.662;2022-08-20T08:08:40;347.08;;;325.77;;
11039;SDS011;5573;49.592;8.662;2022-08-20T08:11:30;350.55;;;328.73;;
11039;SDS011;5573;49.592;8.662;2022-08-20T08:14:22;369.02;;;346.15;;
11039;SDS011;5573;49.592;8.662;2022-08-20T08:17:14;345.30;;;324.42;;
11039;SDS011;5573;49.592;8.662;2022-08-20T08:20:05;334.08;;;314.35;;
11039;SDS011;5573;49.592;8.662;2022-08-20T08:22:55;311.33;;;292.65;;
11039;SDS011;5573;49.592;8.662;2022-08-20T08:25:44;305.27;;;287.13;;
11039;SDS011;5573;49.592;8.662;2022-08-20T08:28:32;290.88;;;273.88;;
11039;SDS011;5573;49.592;8.662;2022-08-20T08:31:23;292.45;;;274.90;;
11039;SDS011;5573;49.592;8.662;2022-08-20T08:34:12;257.40;;;242.48;;
11039;SDS011;5573;49.592;8.662;2022-08-20T08:37:00;213.38;;;200.82;;
11039;SDS011;5573;49.592;8.662;2022-08-20T08:39:48;168.75;;;158.77;;
11039;SDS011;5573;49.592;8.662;2022-08-20T08:42:38;146.40;;;137.82;;
11039;SDS011;5573;49.592;8.662;2022-08-20T08:45:45;127.45;;;120.13;;
11039;SDS011;5573;49.592;8.662;2022-08-20T08:48:39;115.88;;;109.35;;
11039;SDS011;5573;49.592;8.662;2022-08-20T08:51:31;127.55;;;120.43;;
11039;SDS011;5573;49.592;8.662;2022-08-20T08:54:26;133.90;;;126.40;;
11039;SDS011;5573;49.592;8.662;2022-08-20T08:57:17;164.40;;;154.60;;
11039;SDS011;5573;49.592;8.662;2022-08-20T09:00:06;187.30;;;175.90;;
11039;SDS011;5573;49.592;8.662;2022-08-20T09:03:00;200.50;;;188.30;;
11039;SDS011;5573;49.592;8.662;2022-08-20T09:05:55;222.68;;;209.07;;
11039;SDS011;5573;49.592;8.662;2022-08-20T09:08:48;240.25;;;225.95;;
11039;SDS011;5573;49.592;8.662;2022-08-20T09:11:43;237.43;;;223.20;;
11039;SDS011;5573;49.592;8.662;2022-08-20T09:14:33;275.52;;;258.80;;
11039;SDS011;5573;49.592;8.662;2022-08-20T09:17:23;298.38;;;280.20;;
11039;SDS011;5573;49.592;8.662;2022-08-20T09:20:11;306.50;;;287.85;;
11039;SDS011;5573;49.592;8.662;2022-08-20T09:23:00;302.25;;;284.23;;
11039;SDS011;5573;49.592;8.662;2022-08-20T09:25:51;277.77;;;261.13;;
11039;SDS011;5573;49.592;8.662;2022-08-20T09:28:39;245.13;;;230.80;;
11039;SDS011;5573;49.592;8.662;2022-08-20T09:31:28;232.50;;;218.70;;
11039;SDS011;5573;49.592;8.662;2022-08-20T09:34:16;214.20;;;201.07;;
11039;SDS011;5573;49.592;8.662;2022-08-20T09:37:04;240.57;;;226.23;;
11039;SDS011;5573;49.592;8.662;2022-08-20T09:39:54;210.35;;;197.90;;
11039;SDS011;5573;49.592;8.662;2022-08-20T09:42:42;199.48;;;188.02;;
11039;SDS011;5573;49.592;8.662;2022-08-20T09:45:31;189.85;;;178.60;;
11039;SDS011;5573;49.592;8.662;2022-08-20T09:48:19;209.45;;;197.30;;
11039;SDS011;5573;49.592;8.662;2022-08-20T09:51:17;220.35;;;207.00;;
11039;SDS011;5573;49.592;8.662;2022-08-20T09:54:05;222.77;;;209.07;;
11039;SDS011;5573;49.592;8.662;2022-08-20T09:56:55;230.98;;;217.05;;
11039;SDS011;5573;49.592;8.662;2022-08-20T09:59:44;275.63;;;259.23;;
11039;SDS011;5573;49.592;8.662;2022-08-20T10:02:37;300.38;;;282.55;;
11039;SDS011;5573;49.592;8.662;2022-08-20T10:05:25;290.42;;;273.30;;
11039;SDS011;5573;49.592;8.662;2022-08-20T10:08:13;302.00;;;284.10;;
11039;SDS011;5573;49.592;8.662;2022-08-20T10:11:02;319.20;;;300.08;;
11039;SDS011;5573;49.592;8.662;2022-08-20T10:13:52;301.27;;;283.42;;
11039;SDS011;5573;49.592;8.662;2022-08-20T10:16:40;318.40;;;299.48;;
11039;SDS011;5573;49.592;8.662;2022-08-20T10:19:28;304.17;;;286.35;;
11039;SDS011;5573;49.592;8.662;2022-08-20T10:22:17;332.92;;;313.45;;
11039;SDS011;5573;49.592;8.662;2022-08-20T10:25:06;320.83;;;301.85;;
11039;SDS011;5573;49.592;8.662;2022-08-20T10:27:55;338.85;;;318.73;;
11039;SDS011;5573;49.592;8.662;2022-08-20T10:30:45;339.85;;;320.02;;
11039;SDS011;5573;49.592;8.662;2022-08-20T10:33:33;323.02;;;304.20;;
11039;SDS011;5573;49.592;8.662;2022-08-20T10:36:22;291.13;;;273.98;;
11039;SDS011;5573;49.592;8.662;2022-08-20T10:39:10;267.42;;;251.32;;
11039;SDS011;5573;49.592;8.662;2022-08-20T10:41:58;251.20;;;236.07;;
11039;SDS011;5573;49.592;8.662;2022-08-20T10:44:46;226.95;;;213.27;;
11039;SDS011;5573;49.592;8.662;2022-08-20T10:47:35;175.07;;;164.95;;
11039;SDS011;5573;49.592;8.662;2022-08-20T10:50:24;128.10;;;120.88;;
11039;SDS011;5573;49.592;8.662;2022-08-20T10:53:16;104.80;;;99.10;;
11039;SDS011;5573;49.592;8.662;2022-08-20T10:56:05;80.65;;;76.32;;
11039;SDS011;5573;49.592;8.662;2022-08-20T10:58:53;73.57;;;69.68;;
11039;SDS011;5573;49.592;8.662;2022-08-20T11:01:41;64.38;;;60.90;;
11039;SDS011;5573;49.592;8.662;2022-08-20T11:04:31;56.05;;;53.05;;
11039;SDS011;5573;49.592;8.662;2022-08-20T11:07:19;52.90;;;49.95;;
11039;SDS011;5573;49.592;8.662;2022-08-20T11:10:32;46.67;;;44.13;;
11039;SDS011;5573;49.592;8.662;2022-08-20T11:13:21;41.95;;;39.67;;
11039;SDS011;5573;49.592;8.662;2022-08-20T11:16:09;41.28;;;39.03;;
11039;SDS011;5573;49.592;8.662;2022-08-20T11:18:57;38.47;;;36.40;;
11039;SDS011;5573;49.592;8.662;2022-08-20T11:21:48;33.92;;;32.13;;
11039;SDS011;5573;49.592;8.662;2022-08-20T11:24:36;33.53;;;31.73;;
11039;SDS011;5573;49.592;8.662;2022-08-20T11:27:25;33.60;;;31.80;;
11039;SDS011;5573;49.592;8.662;2022-08-20T11:30:16;32.67;;;30.90;;
11039;SDS011;5573;49.592;8.662;2022-08-20T11:33:06;29.17;;;27.65;;
11039;SDS011;5573;49.592;8.662;2022-08-20T11:35:54;30.30;;;28.67;;
11039;SDS011;5573;49.592;8.662;2022-08-20T11:38:44;30.05;;;28.45;;
11039;SDS011;5573;49.592;8.662;2022-08-20T11:41:32;26.85;;;25.45;;
11039;SDS011;5573;49.592;8.662;2022-08-20T11:44:20;24.63;;;23.33;;
11039;SDS011;5573;49.592;8.662;2022-08-20T11:47:08;24.95;;;23.65;;
11039;SDS011;5573;49.592;8.662;2022-08-20T11:50:06;22.95;;;21.75;;
11039;SDS011;5573;49.592;8.662;2022-08-20T11:52:57;19.88;;;18.88;;
11039;SDS011;5573;49.592;8.662;2022-08-20T11:55:48;22.20;;;21.00;;
11039;SDS011;5573;49.592;8.662;2022-08-20T11:58:36;17.42;;;16.52;;
11039;SDS011;5573;49.592;8.662;2022-08-20T12:01:24;15.80;;;15.00;;
11039;SDS011;5573;49.592;8.662;2022-08-20T12:04:13;14.75;;;14.05;;
11039;SDS011;5573;49.592;8.662;2022-08-20T12:07:06;16.88;;;15.98;;
11039;SDS011;5573;49.592;8.662;2022-08-20T12:09:55;15.32;;;14.52;;
11039;SDS011;5573;49.592;8.662;2022-08-20T12:12:45;15.52;;;14.73;;
11039;SDS011;5573;49.592;8.662;2022-08-20T12:15:33;16.08;;;15.27;;
11039;SDS011;5573;49.592;8.662;2022-08-20T12:18:22;14.57;;;13.88;;
11039;SDS011;5573;49.592;8.662;2022-08-20T12:21:12;13.90;;;13.20;;
11039;SDS011;5573;49.592;8.662;2022-08-20T12:24:01;12.38;;;11.77;;
11039;SDS011;5573;49.592;8.662;2022-08-20T12:26:49;14.65;;;13.85;;
11039;SDS011;5573;49.592;8.662;2022-08-20T12:29:39;14.82;;;14.13;;
11039;SDS011;5573;49.592;8.662;2022-08-20T12:32:30;14.07;;;13.38;;
11039;SDS011;5573;49.592;8.662;2022-08-20T12:35:18;13.35;;;12.70;;
11039;SDS011;5573;49.592;8.662;2022-08-20T12:38:06;12.50;;;11.90;;
11039;SDS011;5573;49.592;8.662;2022-08-20T12:40:54;13.10;;;12.48;;
11039;SDS011;5573;49.592;8.662;2022-08-20T12:43:42;15.70;;;14.90;;
11039;SDS011;5573;49.592;8.662;2022-08-20T12:46:32;16.20;;;15.40;;
11039;SDS011;5573;49.592;8.662;2022-08-20T12:49:20;15.65;;;14.85;;
11039;SDS011;5573;49.592;8.662;2022-08-20T12:52:08;17.02;;;16.15;;
11039;SDS011;5573;49.592;8.662;2022-08-20T12:54:56;17.70;;;16.80;;
11039;SDS011;5573;49.592;8.662;2022-08-20T12:57:46;16.50;;;15.70;;
11039;SDS011;5573;49.592;8.662;2022-08-20T13:00:36;16.90;;;16.10;;
11039;SDS011;5573;49.592;8.662;2022-08-20T13:03:30;18.17;;;17.27;;
11039;SDS011;5573;49.592;8.662;2022-08-20T13:06:26;19.38;;;18.38;;
11039;SDS011;5573;49.592;8.662;2022-08-20T13:09:14;14.75;;;14.05;;
11039;SDS011;5573;49.592;8.662;2022-08-20T13:12:03;12.45;;;11.85;;
11039;SDS011;5573;49.592;8.662;2022-08-20T13:14:51;12.13;;;11.52;;
11039;SDS011;5573;49.592;8.662;2022-08-20T13:17:39;13.63;;;12.93;;
11039;SDS011;5573;49.592;8.662;2022-08-20T13:20:30;12.57;;;11.98;;
11039;SDS011;5573;49.592;8.662;2022-08-20T13:23:20;11.98;;;11.38;;
11039;SDS011;5573;49.592;8.662;2022-08-20T13:26:08;11.77;;;11.18;;
11039;SDS011;5573;49.592;8.662;2022-08-20T13:28:56;10.80;;;10.30;;
11039;SDS011;5573;49.592;8.662;2022-08-20T13:31:46;12.27;;;11.68;;
11039;SDS011;5573;49.592;8.662;2022-08-20T13:34:34;12.05;;;11.45;;
11039;SDS011;5573;49.592;8.662;2022-08-20T13:37:26;12.00;;;11.40;;
11039;SDS011;5573;49.592;8.662;2022-08-20T13:40:15;14.18;;;13.48;;
11039;SDS011;5573;49.592;8.662;2022-08-20T13:43:04;13.70;;;13.00;;
11039;SDS011;5573;49.592;8.662;2022-08-20T13:45:57;15.48;;;14.68;;
11039;SDS011;5573;49.592;8.662;2022-08-20T13:48:45;15.15;;;14.38;;
11039;SDS011;5573;49.592;8.662;2022-08-20T13:51:33;14.85;;;14.15;;
11039;SDS011;5573;49.592;8.662;2022-08-20T13:54:23;13.45;;;12.75;;
11039;SDS011;5573;49.592;8.662;2022-08-20T13:57:16;12.50;;;11.90;;
11039;SDS011;5573;49.592;8.662;2022-08-20T14:00:06;12.55;;;11.95;;
11039;SDS011;5573;49.592;8.662;2022-08-20T14:02:57;12.98;;;12.32;;
11039;SDS011;5573;49.592;8.662;2022-08-20T14:05:45;13.10;;;12.48;;
11039;SDS011;5573;49.592;8.662;2022-08-20T14:08:34;13.25;;;12.55;;
11039;SDS011;5573;49.592;8.662;2022-08-20T14:11:23;12.63;;;12.02;;
11039;SDS011;5573;49.592;8.662;2022-08-20T14:14:12;10.55;;;10.05;;
11039;SDS011;5573;49.592;8.662;2022-08-20T14:17:10;9.63;;;9.07;;
11039;SDS011;5573;49.592;8.662;2022-08-20T14:20:03;8.15;;;7.75;;
11039;SDS011;5573;49.592;8.662;2022-08-20T14:22:54;8.13;;;7.63;;
11039;SDS011;5573;49.592;8.662;2022-08-20T14:25:44;7.80;;;7.40;;
11039;SDS011;5573;49.592;8.662;2022-08-20T14:28:36;7.78;;;7.38;;
11039;SDS011;5573;49.592;8.662;2022-08-20T14:31:24;7.70;;;7.30;;
11039;SDS011;5573;49.592;8.662;2022-08-20T14:34:12;7.20;;;6.80;;
11039;SDS011;5573;49.592;8.662;2022-08-20T14:37:08;7.45;;;7.05;;
11039;SDS011;5573;49.592;8.662;2022-08-20T14:39:58;7.63;;;7.22;;
11039;SDS011;5573;49.592;8.662;2022-08-20T14:42:47;7.85;;;7.45;;
11039;SDS011;5573;49.592;8.662;2022-08-20T14:45:38;7.20;;;6.82;;
11039;SDS011;5573;49.592;8.662;2022-08-20T14:48:26;7.75;;;7.35;;
11039;SDS011;5573;49.592;8.662;2022-08-20T14:51:14;8.40;;;8.00;;
11039;SDS011;5573;49.592;8.662;2022-08-20T14:54:03;8.35;;;7.95;;
11039;SDS011;5573;49.592;8.662;2022-08-20T14:56:51;7.47;;;7.07;;
11039;SDS011;5573;49.592;8.662;2022-08-20T14:59:40;6.90;;;6.60;;
11039;SDS011;5573;49.592;8.662;2022-08-20T15:02:30;6.55;;;6.25;;
11039;SDS011;5573;49.592;8.662;2022-08-20T15:05:18;7.03;;;6.63;;
11039;SDS011;5573;49.592;8.662;2022-08-20T15:08:06;7.00;;;6.60;;
11039;SDS011;5573;49.592;8.662;2022-08-20T15:10:56;6.30;;;6.00;;
11039;SDS011;5573;49.592;8.662;2022-08-20T15:13:44;6.05;;;5.75;;
11039;SDS011;5573;49.592;8.662;2022-08-20T15:16:33;8.18;;;7.57;;
11039;SDS011;5573;49.592;8.662;2022-08-20T15:19:22;61.22;;;35.22;;
11039;SDS011;5573;49.592;8.662;2022-08-20T15:22:10;28.75;;;21.13;;
11039;SDS011;5573;49.592;8.662;2022-08-20T15:24:58;6.78;;;6.38;;
11039;SDS011;5573;49.592;8.662;2022-08-20T15:27:46;5.65;;;5.35;;
11039;SDS011;5573;49.592;8.662;2022-08-20T15:30:35;5.95;;;5.65;;
11039;SDS011;5573;49.592;8.662;2022-08-20T15:33:25;5.63;;;5.32;;
11039;SDS011;5573;49.592;8.662;2022-08-20T15:36:14;5.65;;;5.35;;
11039;SDS011;5573;49.592;8.662;2022-08-20T15:39:03;5.80;;;5.50;;
11039;SDS011;5573;49.592;8.662;2022-08-20T15:41:51;5.75;;;5.45;;
11039;SDS011;5573;49.592;8.662;2022-08-20T15:44:39;5.60;;;5.32;;
11039;SDS011;5573;49.592;8.662;2022-08-20T15:47:29;5.60;;;5.32;;
11039;SDS011;5573;49.592;8.662;2022-08-20T15:50:29;5.93;;;5.53;;
11039;SDS011;5573;49.592;8.662;2022-08-20T15:53:26;5.32;;;5.07;;
11039;SDS011;5573;49.592;8.662;2022-08-20T15:56:24;5.65;;;5.25;;
11039;SDS011;5573;49.592;8.662;2022-08-20T16:02:47;5.97;;;5.68;;
11039;SDS011;5573;49.592;8.662;2022-08-20T16:05:47;5.70;;;5.40;;
11039;SDS011;5573;49.592;8.662;2022-08-20T16:08:46;5.78;;;5.47;;
11039;SDS011;5573;49.592;8.662;2022-08-20T16:11:48;5.72;;;5.43;;
11039;SDS011;5573;49.592;8.662;2022-08-20T16:14:42;5.55;;;5.25;;
11039;SDS011;5573;49.592;8.662;2022-08-20T16:17:36;5.70;;;5.40;;
11039;SDS011;5573;49.592;8.662;2022-08-20T16:20:28;5.50;;;5.25;;
11039;SDS011;5573;49.592;8.662;2022-08-20T16:23:22;5.43;;;5.13;;
11039;SDS011;5573;49.592;8.662;2022-08-20T16:26:24;6.00;;;5.70;;
11039;SDS011;5573;49.592;8.662;2022-08-20T16:29:21;5.63;;;5.32;;
11039;SDS011;5573;49.592;8.662;2022-08-20T16:32:16;5.95;;;5.57;;
11039;SDS011;5573;49.592;8.662;2022-08-20T16:38:20;7.30;;;6.80;;
11039;SDS011;5573;49.592;8.662;2022-08-20T16:41:20;6.03;;;5.72;;
11039;SDS011;5573;49.592;8.662;2022-08-20T16:44:15;5.68;;;5.38;;
11039;SDS011;5573;49.592;8.662;2022-08-20T16:47:15;5.82;;;5.43;;